createdAt,value
2018-09-30T00:01:36.533Z,14.52
2018-09-30T00:04:02.513Z,14.38
2018-09-30T00:06:28.453Z,14.30
2018-09-30T00:08:54.393Z,14.25
2018-09-30T00:11:20.364Z,14.14
2018-09-30T00:13:46.344Z,14.13
2018-09-30T00:16:12.285Z,13.99
2018-09-30T00:18:38.265Z,13.99
2018-09-30T00:21:04.210Z,14.04
2018-09-30T00:23:30.150Z,13.99
2018-09-30T00:25:56.114Z,13.97
2018-09-30T00:28:22.142Z,13.98
2018-09-30T00:30:48.093Z,13.95
2018-09-30T00:33:14.045Z,13.94
2018-09-30T00:35:40.000Z,14.02
2018-09-30T00:38:05.981Z,14.02
2018-09-30T00:40:31.937Z,13.98
2018-09-30T00:42:57.900Z,13.89
2018-09-30T00:45:23.883Z,13.79
2018-09-30T00:47:49.833Z,13.78
2018-09-30T00:50:15.781Z,13.85
2018-09-30T00:52:41.731Z,13.80
2018-09-30T00:55:07.672Z,13.75
2018-09-30T00:57:33.650Z,13.69
2018-09-30T00:59:59.648Z,13.59
2018-09-30T01:02:25.614Z,13.53
2018-09-30T01:04:51.591Z,13.47
2018-09-30T01:07:17.554Z,13.78
2018-09-30T01:12:16.003Z,13.65
2018-09-30T01:14:41.957Z,13.60
2018-09-30T01:17:07.908Z,13.50
2018-09-30T01:19:33.842Z,13.45
2018-09-30T01:21:59.815Z,13.43
2018-09-30T01:24:25.767Z,13.51
2018-09-30T01:26:51.747Z,13.47
2018-09-30T01:29:17.688Z,13.45
2018-09-30T01:31:43.678Z,13.60
2018-09-30T01:34:09.632Z,13.81
2018-09-30T01:36:35.604Z,13.97
2018-09-30T01:39:01.563Z,13.92
2018-09-30T01:41:27.543Z,13.99
2018-09-30T01:43:53.510Z,14.04
2018-09-30T01:46:19.483Z,14.03
2018-09-30T01:48:45.440Z,14.03
2018-09-30T01:51:11.389Z,14.05
2018-09-30T01:53:37.343Z,13.99
2018-09-30T01:56:03.297Z,13.97
2018-09-30T01:58:29.294Z,14.09
2018-09-30T02:00:55.232Z,14.24
2018-09-30T02:03:21.182Z,14.41
2018-09-30T02:05:47.158Z,14.37
2018-09-30T02:08:13.106Z,14.36
2018-09-30T02:10:39.048Z,14.43
2018-09-30T02:13:05.037Z,14.48
2018-09-30T02:15:31.043Z,14.34
2018-09-30T02:17:57.010Z,14.31
2018-09-30T02:20:22.976Z,14.28
2018-09-30T02:22:48.967Z,14.34
2018-09-30T02:25:14.971Z,14.35
2018-09-30T02:27:40.937Z,14.41
2018-09-30T02:30:06.917Z,14.54
2018-09-30T02:32:32.887Z,14.64
2018-09-30T02:34:58.854Z,14.73
2018-09-30T02:37:24.837Z,14.74
2018-09-30T02:39:50.823Z,14.62
2018-09-30T02:42:16.776Z,14.49
2018-09-30T02:44:42.807Z,14.43
2018-09-30T02:47:08.769Z,14.43
2018-09-30T02:49:34.729Z,14.33
2018-09-30T02:52:00.711Z,14.22
2018-09-30T02:54:26.684Z,14.18
2018-09-30T02:56:52.696Z,14.24
2018-09-30T02:59:18.666Z,14.20
2018-09-30T03:01:44.676Z,14.09
2018-09-30T03:04:10.614Z,14.04
2018-09-30T03:06:36.608Z,14.07
2018-09-30T03:09:02.574Z,14.04
2018-09-30T03:11:28.536Z,13.91
2018-09-30T03:13:54.467Z,13.87
2018-09-30T03:16:20.416Z,13.83
2018-09-30T03:18:46.394Z,13.80
2018-09-30T03:21:12.340Z,13.88
2018-09-30T03:23:38.284Z,13.90
2018-09-30T03:26:04.266Z,13.79
2018-09-30T03:28:30.245Z,13.73
2018-09-30T03:30:56.201Z,13.79
2018-09-30T03:33:22.134Z,13.71
2018-09-30T03:35:48.065Z,13.79
2018-09-30T03:38:14.033Z,13.61
2018-09-30T03:40:39.976Z,13.46
2018-09-30T03:43:05.907Z,13.31
2018-09-30T03:45:31.834Z,13.28
2018-09-30T03:47:57.794Z,13.26
2018-09-30T03:50:23.756Z,13.28
2018-09-30T03:52:49.748Z,13.41
2018-09-30T03:55:15.692Z,13.51
2018-09-30T03:57:41.671Z,13.70
2018-09-30T04:00:07.640Z,13.61
2018-09-30T04:02:33.627Z,13.51
2018-09-30T04:04:59.574Z,13.41
2018-09-30T04:07:25.544Z,13.33
2018-09-30T04:09:51.499Z,13.31
2018-09-30T04:12:17.477Z,13.40
2018-09-30T04:14:43.433Z,13.44
2018-09-30T04:17:09.549Z,13.37
2018-09-30T04:19:35.398Z,13.30
2018-09-30T04:22:01.437Z,13.32
2018-09-30T04:24:27.408Z,13.22
2018-09-30T04:26:53.359Z,13.24
2018-09-30T04:29:19.319Z,13.45
2018-09-30T04:31:45.272Z,13.57
2018-09-30T04:34:11.208Z,13.52
2018-09-30T04:36:37.182Z,13.62
2018-09-30T04:39:03.121Z,13.50
2018-09-30T04:41:29.084Z,13.54
2018-09-30T04:43:55.036Z,13.62
2018-09-30T04:46:21.002Z,13.61
2018-09-30T04:48:46.932Z,13.62
2018-09-30T04:51:13.149Z,13.49
2018-09-30T04:53:39.336Z,13.51
2018-09-30T04:56:05.356Z,13.34
2018-09-30T04:58:31.331Z,13.29
2018-09-30T05:00:57.405Z,13.27
2018-09-30T05:03:23.374Z,13.30
2018-09-30T05:05:49.357Z,13.40
2018-09-30T05:08:15.280Z,13.43
2018-09-30T05:10:41.270Z,13.35
2018-09-30T05:13:07.289Z,13.35
2018-09-30T05:15:33.351Z,13.43
2018-09-30T05:17:59.363Z,13.42
2018-09-30T05:20:26.405Z,13.38
2018-09-30T05:22:52.400Z,13.28
2018-09-30T05:25:18.457Z,13.38
2018-09-30T05:27:44.442Z,13.39
2018-09-30T05:30:10.490Z,13.34
2018-09-30T05:32:36.529Z,13.33
2018-09-30T05:35:02.523Z,13.34
2018-09-30T05:37:28.508Z,13.32
2018-09-30T05:39:54.505Z,13.33
2018-09-30T05:42:20.582Z,13.35
2018-09-30T05:44:46.546Z,13.45
2018-09-30T05:47:12.545Z,13.63
2018-09-30T05:49:38.539Z,13.84
2018-09-30T05:52:04.529Z,14.05
2018-09-30T05:54:30.484Z,14.22
2018-09-30T05:56:56.451Z,14.46
2018-09-30T05:59:23.524Z,14.74
2018-09-30T06:01:50.570Z,15.05
2018-09-30T06:04:16.591Z,15.14
2018-09-30T06:06:42.585Z,15.25
2018-09-30T06:09:08.687Z,15.41
2018-09-30T06:11:34.525Z,15.72
2018-09-30T06:14:00.569Z,15.81
2018-09-30T06:16:26.512Z,15.87
2018-09-30T06:18:52.471Z,16.09
2018-09-30T06:21:18.461Z,16.32
2018-09-30T06:23:44.501Z,16.55
2018-09-30T06:26:10.441Z,16.78
2018-09-30T06:28:36.418Z,16.84
2018-09-30T06:31:02.375Z,17.03
2018-09-30T06:33:28.375Z,17.29
2018-09-30T06:35:54.321Z,17.47
2018-09-30T06:38:20.333Z,17.66
2018-09-30T06:40:46.281Z,17.96
2018-09-30T06:43:12.238Z,18.25
2018-09-30T06:45:38.216Z,18.61
2018-09-30T06:48:04.179Z,18.78
2018-09-30T06:50:30.146Z,18.94
2018-09-30T06:52:56.110Z,19.00
2018-09-30T06:55:22.050Z,19.03
2018-09-30T06:57:48.002Z,19.18
2018-09-30T07:00:14.030Z,19.42
2018-09-30T07:02:39.991Z,19.52
2018-09-30T07:05:05.950Z,19.48
2018-09-30T07:07:31.964Z,19.59
2018-09-30T07:09:57.929Z,19.66
2018-09-30T07:12:23.890Z,19.67
2018-09-30T07:14:49.822Z,19.70
2018-09-30T07:17:15.783Z,19.88
2018-09-30T07:19:41.733Z,19.97
2018-09-30T07:22:07.721Z,19.85
2018-09-30T07:24:33.719Z,19.82
2018-09-30T07:26:59.676Z,19.86
2018-09-30T07:29:25.668Z,20.18
2018-09-30T07:31:51.719Z,20.36
2018-09-30T07:34:20.590Z,20.54
2018-09-30T07:36:46.637Z,20.69
2018-09-30T07:39:12.645Z,20.91
2018-09-30T07:41:38.600Z,21.01
2018-09-30T07:44:04.567Z,21.17
2018-09-30T07:46:30.629Z,21.19
2018-09-30T07:48:56.635Z,21.10
2018-09-30T07:51:22.702Z,21.13
2018-09-30T07:53:49.170Z,21.05
2018-09-30T07:56:15.149Z,21.03
2018-09-30T07:58:41.089Z,20.88
2018-09-30T08:01:07.050Z,20.88
2018-09-30T08:03:32.992Z,20.90
2018-09-30T08:05:58.960Z,20.87
2018-09-30T08:08:24.912Z,20.92
2018-09-30T08:10:50.871Z,20.83
2018-09-30T08:13:16.849Z,20.90
2018-09-30T08:15:43.451Z,20.83
2018-09-30T08:18:10.533Z,20.97
2018-09-30T08:20:36.746Z,21.14
2018-09-30T08:23:02.713Z,21.10
2018-09-30T08:25:28.654Z,21.21
2018-09-30T08:27:54.600Z,21.17
2018-09-30T08:30:20.553Z,21.07
2018-09-30T08:32:46.559Z,20.88
2018-09-30T08:35:12.513Z,20.94
2018-09-30T08:37:38.516Z,20.86
2018-09-30T08:40:04.933Z,20.51
2018-09-30T08:42:30.888Z,20.63
2018-09-30T08:44:56.846Z,20.79
2018-09-30T08:47:22.895Z,20.29
2018-09-30T08:49:48.801Z,20.69
2018-09-30T08:52:14.781Z,21.08
2018-09-30T08:54:40.753Z,21.22
2018-09-30T08:57:06.861Z,21.34
2018-09-30T08:59:32.802Z,21.42
2018-09-30T09:01:58.768Z,21.56
2018-09-30T09:04:24.713Z,21.37
2018-09-30T09:06:50.783Z,21.57
2018-09-30T09:09:16.733Z,21.55
2018-09-30T09:11:42.760Z,21.51
2018-09-30T09:14:08.700Z,21.35
2018-09-30T09:16:34.677Z,21.52
2018-09-30T09:19:00.645Z,21.53
2018-09-30T09:21:26.603Z,21.60
2018-09-30T09:23:52.551Z,21.48
2018-09-30T09:26:18.499Z,21.40
2018-09-30T09:28:44.460Z,21.25
2018-09-30T09:31:10.445Z,21.34
2018-09-30T09:33:36.396Z,21.24
2018-09-30T09:36:02.349Z,21.29
2018-09-30T09:38:28.357Z,21.59
2018-09-30T09:40:54.264Z,21.77
2018-09-30T09:43:20.212Z,21.84
2018-09-30T09:45:46.190Z,21.75
2018-09-30T09:48:12.135Z,21.85
2018-09-30T09:50:38.089Z,21.84
2018-09-30T09:53:04.044Z,21.88
2018-09-30T09:55:30.001Z,21.70
2018-09-30T09:57:55.958Z,21.75
2018-09-30T10:00:21.898Z,21.91
2018-09-30T10:02:47.896Z,21.60
2018-09-30T10:05:13.917Z,21.75
2018-09-30T10:07:39.804Z,21.88
2018-09-30T10:10:05.776Z,21.98
2018-09-30T10:12:31.716Z,21.96
2018-09-30T10:14:57.696Z,21.98
2018-09-30T10:17:23.667Z,22.03
2018-09-30T10:19:49.609Z,21.83
2018-09-30T10:22:15.577Z,21.73
2018-09-30T10:24:41.520Z,21.67
2018-09-30T10:27:07.470Z,21.81
2018-09-30T10:29:33.450Z,21.92
2018-09-30T10:31:59.435Z,21.94
2018-09-30T10:34:25.414Z,21.82
2018-09-30T10:36:51.371Z,21.82
2018-09-30T10:39:17.494Z,21.91
2018-09-30T10:41:43.377Z,21.97
2018-09-30T10:44:09.346Z,21.85
2018-09-30T10:46:35.316Z,21.60
2018-09-30T10:49:01.261Z,21.81
2018-09-30T10:51:27.225Z,21.49
2018-09-30T10:53:53.187Z,21.51
2018-09-30T10:56:19.151Z,21.76
2018-09-30T10:58:45.108Z,21.83
2018-09-30T11:01:11.048Z,21.80
2018-09-30T11:03:37.098Z,21.92
2018-09-30T11:06:02.998Z,21.99
2018-09-30T11:08:28.976Z,21.98
2018-09-30T11:10:54.944Z,21.89
2018-09-30T11:13:20.911Z,21.92
2018-09-30T11:15:46.879Z,21.98
2018-09-30T11:18:12.830Z,21.96
2018-09-30T11:20:38.798Z,21.67
2018-09-30T11:23:04.763Z,21.74
2018-09-30T11:25:30.746Z,21.44
2018-09-30T11:27:56.696Z,21.52
2018-09-30T11:30:22.689Z,21.41
2018-09-30T11:32:48.665Z,21.63
2018-09-30T11:35:14.632Z,21.84
2018-09-30T11:37:40.601Z,21.84
2018-09-30T11:40:06.556Z,21.85
2018-09-30T11:42:32.537Z,21.93
2018-09-30T11:44:58.506Z,21.84
2018-09-30T11:47:24.544Z,21.98
2018-09-30T11:49:50.480Z,21.75
2018-09-30T11:52:16.486Z,21.46
2018-09-30T11:54:42.437Z,21.33
2018-09-30T11:57:08.391Z,21.47
2018-09-30T11:59:34.356Z,20.99
2018-09-30T12:02:00.308Z,21.11
2018-09-30T12:04:26.281Z,21.37
2018-09-30T12:06:52.231Z,21.61
2018-09-30T12:09:18.186Z,21.88
2018-09-30T12:11:44.204Z,21.98
2018-09-30T12:14:10.188Z,21.90
2018-09-30T12:16:36.150Z,21.55
2018-09-30T12:19:02.149Z,21.63
2018-09-30T12:21:28.091Z,20.95
2018-09-30T12:23:54.045Z,21.08
2018-09-30T12:26:19.988Z,21.28
2018-09-30T12:28:45.974Z,21.21
2018-09-30T12:31:11.919Z,20.97
2018-09-30T12:33:37.939Z,20.70
2018-09-30T12:36:03.917Z,20.99
2018-09-30T12:38:29.891Z,21.18
2018-09-30T12:40:55.849Z,21.02
2018-09-30T12:43:21.804Z,21.20
2018-09-30T12:45:47.736Z,21.00
2018-09-30T12:48:13.715Z,21.08
2018-09-30T12:50:39.672Z,20.84
2018-09-30T12:53:05.636Z,20.52
2018-09-30T12:55:31.569Z,20.59
2018-09-30T12:57:57.592Z,21.01
2018-09-30T13:00:23.520Z,21.43
2018-09-30T13:02:49.484Z,21.23
2018-09-30T13:05:15.435Z,21.32
2018-09-30T13:07:41.435Z,21.43
2018-09-30T13:10:07.372Z,21.27
2018-09-30T13:12:33.350Z,21.31
2018-09-30T13:14:59.285Z,21.25
2018-09-30T13:17:25.250Z,21.33
2018-09-30T13:19:51.227Z,21.30
2018-09-30T13:22:17.151Z,21.34
2018-09-30T13:24:43.107Z,21.52
2018-09-30T13:27:09.068Z,21.43
2018-09-30T13:29:35.035Z,21.39
2018-09-30T13:34:33.296Z,21.60
2018-09-30T13:36:59.245Z,21.61
2018-09-30T13:39:25.241Z,21.80
2018-09-30T13:41:51.238Z,22.26
2018-09-30T13:44:17.194Z,22.08
2018-09-30T13:46:43.182Z,21.82
2018-09-30T13:49:09.168Z,21.94
2018-09-30T13:51:35.120Z,21.71
2018-09-30T13:54:01.066Z,21.82
2018-09-30T13:56:27.009Z,21.93
2018-09-30T13:58:53.005Z,22.06
2018-09-30T14:01:18.988Z,22.17
2018-09-30T14:03:44.954Z,21.75
2018-09-30T14:06:10.920Z,21.61
2018-09-30T14:08:36.916Z,21.83
2018-09-30T14:11:02.881Z,21.80
2018-09-30T14:13:28.881Z,21.83
2018-09-30T14:15:54.932Z,21.70
2018-09-30T14:18:21.108Z,21.77
2018-09-30T14:20:47.332Z,21.89
2018-09-30T14:25:45.691Z,22.41
2018-09-30T14:28:11.670Z,22.47
2018-09-30T14:30:37.614Z,22.06
2018-09-30T14:33:03.566Z,21.92
2018-09-30T14:35:29.546Z,21.78
2018-09-30T14:37:55.501Z,21.85
2018-09-30T14:40:21.464Z,22.13
2018-09-30T14:42:47.423Z,22.15
2018-09-30T14:45:13.364Z,22.33
2018-09-30T14:47:39.303Z,22.74
2018-09-30T14:50:05.283Z,22.83
2018-09-30T14:52:31.286Z,22.72
2018-09-30T14:54:57.240Z,22.89
2018-09-30T14:57:23.209Z,22.99
2018-09-30T14:59:49.202Z,23.03
2018-09-30T15:02:15.126Z,23.07
2018-09-30T15:04:41.087Z,22.97
2018-09-30T15:07:07.051Z,22.97
2018-09-30T15:09:33.037Z,23.17
2018-09-30T15:11:58.981Z,23.10
2018-09-30T15:14:24.920Z,23.21
2018-09-30T15:16:50.902Z,23.18
2018-09-30T15:19:16.885Z,23.26
2018-09-30T15:21:42.849Z,23.36
2018-09-30T15:24:08.860Z,23.05
2018-09-30T15:26:34.827Z,22.83
2018-09-30T15:29:00.791Z,22.79
2018-09-30T15:31:26.774Z,22.68
2018-09-30T15:33:52.764Z,22.33
2018-09-30T15:36:18.744Z,22.02
2018-09-30T15:38:44.694Z,21.97
2018-09-30T15:41:10.650Z,22.03
2018-09-30T15:43:36.633Z,21.94
2018-09-30T15:46:02.609Z,21.92
2018-09-30T15:48:28.545Z,21.88
2018-09-30T15:50:54.529Z,21.75
2018-09-30T15:53:20.478Z,21.75
2018-09-30T15:55:46.435Z,21.69
2018-09-30T15:58:12.373Z,21.53
2018-09-30T16:00:38.321Z,21.72
2018-09-30T16:03:04.265Z,21.90
2018-09-30T16:05:30.243Z,21.99
2018-09-30T16:07:56.228Z,22.02
2018-09-30T16:10:22.177Z,21.62
2018-09-30T16:12:48.155Z,21.71
2018-09-30T16:15:14.127Z,21.80
2018-09-30T16:17:40.085Z,22.01
2018-09-30T16:20:06.069Z,22.02
2018-09-30T16:22:32.021Z,22.03
2018-09-30T16:24:58.018Z,21.99
2018-09-30T16:27:23.959Z,22.07
2018-09-30T16:29:49.927Z,22.04
2018-09-30T16:32:15.898Z,22.02
2018-09-30T16:34:41.859Z,21.98
2018-09-30T16:37:07.829Z,21.85
2018-09-30T16:39:33.798Z,21.77
2018-09-30T16:41:59.741Z,21.73
2018-09-30T16:44:25.684Z,21.74
2018-09-30T16:46:51.656Z,21.78
2018-09-30T16:49:17.610Z,22.09
2018-09-30T16:51:43.576Z,22.28
2018-09-30T16:54:09.534Z,22.38
2018-09-30T16:56:35.511Z,22.36
2018-09-30T16:59:01.481Z,22.35
2018-09-30T17:01:27.446Z,22.32
2018-09-30T17:03:53.394Z,22.26
2018-09-30T17:06:19.414Z,22.12
2018-09-30T17:08:45.339Z,22.03
2018-09-30T17:11:11.269Z,21.94
2018-09-30T17:13:37.228Z,21.79
2018-09-30T17:16:03.192Z,21.70
2018-09-30T17:18:29.144Z,21.66
2018-09-30T17:20:55.080Z,21.54
2018-09-30T17:23:21.122Z,21.47
2018-09-30T17:25:47.020Z,21.42
2018-09-30T17:28:12.992Z,21.44
2018-09-30T17:30:38.985Z,21.41
2018-09-30T17:33:04.960Z,21.41
2018-09-30T17:35:30.975Z,21.32
2018-09-30T17:37:56.953Z,21.28
2018-09-30T17:40:22.929Z,21.21
2018-09-30T17:42:48.951Z,21.14
2018-09-30T17:45:14.928Z,21.09
2018-09-30T17:47:40.909Z,21.02
2018-09-30T17:50:06.911Z,20.96
2018-09-30T17:52:32.856Z,20.74
2018-09-30T17:57:31.453Z,20.67
2018-09-30T17:59:57.471Z,20.69
2018-09-30T18:02:23.436Z,20.51
2018-09-30T18:04:49.426Z,20.42
2018-09-30T18:07:15.404Z,20.31
2018-09-30T18:09:41.377Z,20.24
2018-09-30T18:12:07.338Z,20.25
2018-09-30T18:14:33.277Z,20.13
2018-09-30T18:16:59.340Z,20.09
2018-09-30T18:19:25.184Z,20.07
2018-09-30T18:21:51.165Z,20.06
2018-09-30T18:24:17.127Z,20.10
2018-09-30T18:26:43.085Z,20.05
2018-09-30T18:29:09.050Z,20.06
2018-09-30T18:31:34.996Z,20.13
2018-09-30T18:34:00.956Z,20.21
2018-09-30T18:36:26.938Z,20.21
2018-09-30T18:38:52.923Z,20.28
2018-09-30T18:41:18.902Z,20.21
2018-09-30T18:43:44.860Z,20.15
2018-09-30T18:46:10.854Z,20.02
2018-09-30T18:48:36.814Z,20.01
2018-09-30T18:51:02.797Z,19.89
2018-09-30T18:53:28.765Z,19.84
2018-09-30T18:55:54.796Z,19.69
2018-09-30T18:58:20.758Z,19.56
2018-09-30T19:00:46.746Z,19.54
2018-09-30T19:03:12.714Z,19.43
2018-09-30T19:05:38.714Z,19.40
2018-09-30T19:08:04.662Z,19.26
2018-09-30T19:10:30.638Z,19.20
2018-09-30T19:12:56.605Z,19.22
2018-09-30T19:15:22.574Z,19.31
2018-09-30T19:17:48.505Z,19.35
2018-09-30T19:20:14.506Z,19.20
2018-09-30T19:22:40.468Z,19.06
2018-09-30T19:25:06.507Z,18.99
2018-09-30T19:27:32.433Z,18.87
2018-09-30T19:29:58.450Z,18.89
2018-09-30T19:32:24.392Z,18.90
2018-09-30T19:34:50.338Z,18.84
2018-09-30T19:37:16.382Z,18.75
2018-09-30T19:39:42.400Z,18.72
2018-09-30T19:42:08.425Z,18.68
2018-09-30T19:44:34.397Z,18.65
2018-09-30T19:47:00.411Z,18.57
2018-09-30T19:49:26.358Z,18.48
2018-09-30T19:51:52.320Z,18.46
2018-09-30T19:54:18.287Z,18.39
2018-09-30T19:56:44.237Z,18.31
2018-09-30T19:59:10.216Z,18.15
2018-09-30T20:01:36.166Z,18.07
2018-09-30T20:04:02.124Z,18.07
2018-09-30T20:06:28.090Z,18.13
2018-09-30T20:08:54.044Z,18.16
2018-09-30T20:11:19.989Z,18.20
2018-09-30T20:13:45.931Z,18.25
2018-09-30T20:16:11.897Z,18.40
2018-09-30T20:18:37.863Z,18.47
2018-09-30T20:21:03.796Z,18.47
2018-09-30T20:23:29.754Z,18.40
2018-09-30T20:25:55.718Z,18.33
2018-09-30T20:28:21.665Z,18.24
2018-09-30T20:30:47.631Z,18.25
2018-09-30T20:33:13.605Z,18.18
2018-09-30T20:35:39.654Z,18.03
2018-09-30T20:38:05.590Z,17.89
2018-09-30T20:40:31.551Z,17.78
2018-09-30T20:42:57.526Z,17.86
2018-09-30T20:45:23.502Z,17.96
2018-09-30T20:47:49.566Z,17.93
2018-09-30T20:50:15.508Z,17.84
2018-09-30T20:52:41.478Z,17.78
2018-09-30T20:55:07.421Z,17.86
2018-09-30T20:57:33.379Z,17.87
2018-09-30T20:59:59.312Z,17.82
2018-09-30T21:02:25.300Z,17.74
2018-09-30T21:04:51.308Z,17.50
2018-09-30T21:07:17.214Z,17.50
2018-09-30T21:09:43.151Z,17.57
2018-09-30T21:12:09.114Z,17.57
2018-09-30T21:14:35.064Z,17.51
2018-09-30T21:17:01.028Z,17.60
2018-09-30T21:19:26.968Z,17.56
2018-09-30T21:21:52.934Z,17.54
2018-09-30T21:24:18.969Z,17.53
2018-09-30T21:26:44.909Z,17.52
2018-09-30T21:29:10.870Z,17.48
2018-09-30T21:31:36.815Z,17.53
2018-09-30T21:34:02.760Z,17.56
2018-09-30T21:36:28.708Z,17.47
2018-09-30T21:38:54.637Z,17.52
2018-09-30T21:41:20.592Z,17.53
2018-09-30T21:43:46.554Z,17.48
2018-09-30T21:46:12.514Z,17.41
2018-09-30T21:48:38.555Z,17.42
2018-09-30T21:51:04.475Z,17.32
2018-09-30T21:53:30.435Z,17.27
2018-09-30T21:55:56.377Z,17.22
2018-09-30T21:58:22.319Z,17.28
2018-09-30T22:00:48.289Z,17.29
2018-09-30T22:03:14.245Z,17.32
2018-09-30T22:05:40.229Z,17.20
2018-09-30T22:08:06.212Z,17.19
2018-09-30T22:10:32.180Z,17.22
2018-09-30T22:12:58.105Z,17.21
2018-09-30T22:15:24.073Z,17.23
2018-09-30T22:17:50.035Z,17.20
2018-09-30T22:20:16.058Z,17.23
2018-09-30T22:22:41.997Z,17.25
2018-09-30T22:25:11.841Z,17.30
2018-09-30T22:27:37.816Z,17.27
2018-09-30T22:30:03.780Z,17.22
2018-09-30T22:32:29.950Z,17.19
2018-09-30T22:34:55.914Z,17.20
2018-09-30T22:37:22.144Z,17.22
2018-09-30T22:39:48.104Z,17.22
2018-09-30T22:42:14.034Z,17.21
2018-09-30T22:44:40.008Z,17.21
2018-09-30T22:47:05.949Z,17.10
2018-09-30T22:49:31.893Z,16.99
2018-09-30T22:51:57.858Z,16.96
2018-09-30T22:54:23.810Z,16.90
2018-09-30T22:56:49.766Z,16.92
2018-09-30T22:59:15.722Z,16.93
2018-09-30T23:01:41.862Z,16.93
2018-09-30T23:04:08.085Z,16.99
2018-09-30T23:06:34.041Z,16.94
2018-09-30T23:09:00.013Z,16.86
2018-09-30T23:11:25.959Z,16.87
2018-09-30T23:13:51.984Z,16.85
2018-09-30T23:16:17.956Z,16.79
2018-09-30T23:18:43.919Z,16.82
2018-09-30T23:21:10.040Z,16.94
2018-09-30T23:23:35.988Z,16.89
2018-09-30T23:26:01.940Z,16.77
2018-09-30T23:28:27.981Z,16.76
2018-09-30T23:30:53.921Z,16.67
2018-09-30T23:33:19.848Z,16.65
2018-09-30T23:35:45.836Z,16.66
2018-09-30T23:38:11.799Z,16.69
2018-09-30T23:40:37.738Z,16.58
2018-09-30T23:43:03.704Z,16.54
2018-09-30T23:45:29.673Z,16.69
2018-09-30T23:47:55.632Z,16.74
2018-09-30T23:50:21.597Z,16.80
2018-09-30T23:52:47.544Z,16.78
2018-09-30T23:55:13.680Z,16.86
2018-09-30T23:57:39.676Z,16.86
